sensor_id;sensor_type;location;lat;lon;timestamp;pressure;altitude;pressure_sealevel;temperature
67599;BMP280;62026;39.230;9.122;2023-02-18T00:01:25;102695.41;;;11.85
67599;BMP280;62026;39.230;9.122;2023-02-18T00:03:51;102688.81;;;11.89
67599;BMP280;62026;39.230;9.122;2023-02-18T00:06:33;102686.81;;;11.83
67599;BMP280;62026;39.230;9.122;2023-02-18T00:09:02;102683.19;;;11.84
67599;BMP280;62026;39.230;9.122;2023-02-18T00:11:33;102686.97;;;11.81
67599;BMP280;62026;39.230;9.122;2023-02-18T00:14:01;102690.28;;;11.83
67599;BMP280;62026;39.230;9.122;2023-02-18T00:16:29;102688.47;;;11.84
67599;BMP280;62026;39.230;9.122;2023-02-18T00:19:00;102691.94;;;11.84
67599;BMP280;62026;39.230;9.122;2023-02-18T00:21:27;102688.81;;;11.81
67599;BMP280;62026;39.230;9.122;2023-02-18T00:23:54;102682.69;;;11.80
67599;BMP280;62026;39.230;9.122;2023-02-18T00:26:20;102677.38;;;11.80
67599;BMP280;62026;39.230;9.122;2023-02-18T00:28:47;102684.66;;;11.78
67599;BMP280;62026;39.230;9.122;2023-02-18T00:31:24;102680.53;;;11.75
67599;BMP280;62026;39.230;9.122;2023-02-18T00:33:51;102684.16;;;11.74
67599;BMP280;62026;39.230;9.122;2023-02-18T00:36:20;102676.91;;;11.77
67599;BMP280;62026;39.230;9.122;2023-02-18T00:38:51;102682.81;;;11.79
67599;BMP280;62026;39.230;9.122;2023-02-18T00:41:20;102682.53;;;11.73
67599;BMP280;62026;39.230;9.122;2023-02-18T00:43:47;102681.53;;;11.74
67599;BMP280;62026;39.230;9.122;2023-02-18T00:46:14;102687.16;;;11.71
67599;BMP280;62026;39.230;9.122;2023-02-18T00:48:40;102681.03;;;11.71
67599;BMP280;62026;39.230;9.122;2023-02-18T00:51:09;102679.53;;;11.68
67599;BMP280;62026;39.230;9.122;2023-02-18T00:53:35;102686.00;;;11.66
67599;BMP280;62026;39.230;9.122;2023-02-18T00:56:02;102680.19;;;11.62
67599;BMP280;62026;39.230;9.122;2023-02-18T00:58:29;102681.69;;;11.57
67599;BMP280;62026;39.230;9.122;2023-02-18T01:00:55;102680.38;;;11.53
67599;BMP280;62026;39.230;9.122;2023-02-18T01:03:22;102685.47;;;11.54
67599;BMP280;62026;39.230;9.122;2023-02-18T01:05:50;102685.81;;;11.51
67599;BMP280;62026;39.230;9.122;2023-02-18T01:08:18;102674.56;;;11.49
67599;BMP280;62026;39.230;9.122;2023-02-18T01:10:48;102677.88;;;11.43
67599;BMP280;62026;39.230;9.122;2023-02-18T01:13:15;102673.22;;;11.37
67599;BMP280;62026;39.230;9.122;2023-02-18T01:15:42;102670.91;;;11.34
67599;BMP280;62026;39.230;9.122;2023-02-18T01:18:10;102676.22;;;11.34
67599;BMP280;62026;39.230;9.122;2023-02-18T01:20:38;102667.09;;;11.28
67599;BMP280;62026;39.230;9.122;2023-02-18T01:23:07;102665.28;;;11.29
67599;BMP280;62026;39.230;9.122;2023-02-18T01:25:34;102671.56;;;11.28
67599;BMP280;62026;39.230;9.122;2023-02-18T01:28:00;102668.28;;;11.26
67599;BMP280;62026;39.230;9.122;2023-02-18T01:30:27;102666.94;;;11.22
67599;BMP280;62026;39.230;9.122;2023-02-18T01:32:55;102663.63;;;11.28
67599;BMP280;62026;39.230;9.122;2023-02-18T01:35:22;102665.66;;;11.26
67599;BMP280;62026;39.230;9.122;2023-02-18T01:37:49;102670.56;;;11.21
67599;BMP280;62026;39.230;9.122;2023-02-18T01:40:20;102670.22;;;11.16
67599;BMP280;62026;39.230;9.122;2023-02-18T01:42:48;102669.56;;;11.14
67599;BMP280;62026;39.230;9.122;2023-02-18T01:48:25;102677.19;;;11.25
67599;BMP280;62026;39.230;9.122;2023-02-18T01:51:27;102678.50;;;11.21
67599;BMP280;62026;39.230;9.122;2023-02-18T01:54:17;102675.50;;;11.16
67599;BMP280;62026;39.230;9.122;2023-02-18T01:59:32;102686.56;;;11.11
67599;BMP280;62026;39.230;9.122;2023-02-18T02:02:00;102674.34;;;11.10
67599;BMP280;62026;39.230;9.122;2023-02-18T02:04:28;102680.78;;;11.07
67599;BMP280;62026;39.230;9.122;2023-02-18T02:06:55;102667.06;;;11.04
67599;BMP280;62026;39.230;9.122;2023-02-18T02:09:25;102674.47;;;11.00
67599;BMP280;62026;39.230;9.122;2023-02-18T02:15:02;102669.19;;;11.00
67599;BMP280;62026;39.230;9.122;2023-02-18T02:18:16;102671.16;;;10.98
67599;BMP280;62026;39.230;9.122;2023-02-18T02:30:43;102673.47;;;10.93
67599;BMP280;62026;39.230;9.122;2023-02-18T02:33:35;102661.41;;;10.91
67599;BMP280;62026;39.230;9.122;2023-02-18T02:36:23;102660.56;;;10.90
67599;BMP280;62026;39.230;9.122;2023-02-18T02:39:16;102665.50;;;10.85
67599;BMP280;62026;39.230;9.122;2023-02-18T02:44:49;102660.53;;;10.82
67599;BMP280;62026;39.230;9.122;2023-02-18T02:47:40;102664.19;;;10.81
67599;BMP280;62026;39.230;9.122;2023-02-18T02:50:27;102659.25;;;10.86
67599;BMP280;62026;39.230;9.122;2023-02-18T02:53:05;102661.88;;;10.86
67599;BMP280;62026;39.230;9.122;2023-02-18T02:55:38;102660.41;;;10.92
67599;BMP280;62026;39.230;9.122;2023-02-18T02:58:04;102660.22;;;10.85
67599;BMP280;62026;39.230;9.122;2023-02-18T03:00:54;102661.88;;;10.86
67599;BMP280;62026;39.230;9.122;2023-02-18T03:12:41;102656.38;;;10.79
67599;BMP280;62026;39.230;9.122;2023-02-18T03:15:54;102658.38;;;10.77
67599;BMP280;62026;39.230;9.122;2023-02-18T03:21:12;102651.91;;;10.72
67599;BMP280;62026;39.230;9.122;2023-02-18T03:24:06;102649.59;;;10.69
67599;BMP280;62026;39.230;9.122;2023-02-18T03:26:39;102645.16;;;10.69
67599;BMP280;62026;39.230;9.122;2023-02-18T03:29:09;102646.28;;;10.67
67599;BMP280;62026;39.230;9.122;2023-02-18T03:31:37;102643.31;;;10.62
67599;BMP280;62026;39.230;9.122;2023-02-18T03:34:12;102652.69;;;10.64
67599;BMP280;62026;39.230;9.122;2023-02-18T03:36:42;102647.13;;;10.67
67599;BMP280;62026;39.230;9.122;2023-02-18T03:39:14;102646.59;;;10.64
67599;BMP280;62026;39.230;9.122;2023-02-18T03:41:42;102644.94;;;10.63
67599;BMP280;62026;39.230;9.122;2023-02-18T03:44:10;102642.00;;;10.66
67599;BMP280;62026;39.230;9.122;2023-02-18T03:46:41;102639.00;;;10.61
67599;BMP280;62026;39.230;9.122;2023-02-18T03:49:13;102643.31;;;10.62
67599;BMP280;62026;39.230;9.122;2023-02-18T03:51:40;102646.59;;;10.64
67599;BMP280;62026;39.230;9.122;2023-02-18T03:54:07;102646.94;;;10.61
67599;BMP280;62026;39.230;9.122;2023-02-18T03:56:35;102647.91;;;10.60
67599;BMP280;62026;39.230;9.122;2023-02-18T03:59:02;102641.66;;;10.61
67599;BMP280;62026;39.230;9.122;2023-02-18T04:01:29;102651.38;;;10.60
67599;BMP280;62026;39.230;9.122;2023-02-18T04:03:55;102653.34;;;10.58
67599;BMP280;62026;39.230;9.122;2023-02-18T04:06:22;102657.81;;;10.58
67599;BMP280;62026;39.230;9.122;2023-02-18T04:08:48;102651.38;;;10.60
67599;BMP280;62026;39.230;9.122;2023-02-18T04:11:15;102659.94;;;10.62
67599;BMP280;62026;39.230;9.122;2023-02-18T04:13:41;102654.84;;;10.61
67599;BMP280;62026;39.230;9.122;2023-02-18T04:16:07;102659.16;;;10.62
67599;BMP280;62026;39.230;9.122;2023-02-18T04:18:33;102647.75;;;10.61
67599;BMP280;62026;39.230;9.122;2023-02-18T04:20:59;102647.25;;;10.58
67599;BMP280;62026;39.230;9.122;2023-02-18T04:23:26;102648.28;;;10.65
67599;BMP280;62026;39.230;9.122;2023-02-18T04:25:52;102642.47;;;10.61
67599;BMP280;62026;39.230;9.122;2023-02-18T04:28:18;102641.13;;;10.57
67599;BMP280;62026;39.230;9.122;2023-02-18T04:30:46;102648.91;;;10.59
67599;BMP280;62026;39.230;9.122;2023-02-18T04:33:13;102647.25;;;10.58
67599;BMP280;62026;39.230;9.122;2023-02-18T04:35:39;102649.72;;;10.59
67599;BMP280;62026;39.230;9.122;2023-02-18T04:38:08;102648.19;;;10.57
67599;BMP280;62026;39.230;9.122;2023-02-18T04:40:35;102652.53;;;10.58
67599;BMP280;62026;39.230;9.122;2023-02-18T04:43:01;102645.09;;;10.53
67599;BMP280;62026;39.230;9.122;2023-02-18T04:45:27;102648.19;;;10.57
67599;BMP280;62026;39.230;9.122;2023-02-18T04:47:54;102655.47;;;10.55
67599;BMP280;62026;39.230;9.122;2023-02-18T04:50:21;102657.25;;;10.54
67599;BMP280;62026;39.230;9.122;2023-02-18T04:52:48;102651.78;;;10.48
67599;BMP280;62026;39.230;9.122;2023-02-18T04:55:14;102659.44;;;10.51
67599;BMP280;62026;39.230;9.122;2023-02-18T04:57:40;102656.59;;;10.44
67599;BMP280;62026;39.230;9.122;2023-02-18T05:00:09;102658.56;;;10.42
67599;BMP280;62026;39.230;9.122;2023-02-18T05:02:38;102664.94;;;10.39
67599;BMP280;62026;39.230;9.122;2023-02-18T05:05:04;102665.09;;;10.38
67599;BMP280;62026;39.230;9.122;2023-02-18T05:07:31;102668.56;;;10.38
67599;BMP280;62026;39.230;9.122;2023-02-18T05:09:57;102666.28;;;10.35
67599;BMP280;62026;39.230;9.122;2023-02-18T05:12:23;102671.84;;;10.32
67599;BMP280;62026;39.230;9.122;2023-02-18T05:14:48;102674.47;;;10.32
67599;BMP280;62026;39.230;9.122;2023-02-18T05:17:14;102670.84;;;10.33
67599;BMP280;62026;39.230;9.122;2023-02-18T05:19:40;102670.53;;;10.28
67599;BMP280;62026;39.230;9.122;2023-02-18T05:22:06;102670.34;;;10.30
67599;BMP280;62026;39.230;9.122;2023-02-18T05:24:32;102667.88;;;10.28
67599;BMP280;62026;39.230;9.122;2023-02-18T05:26:58;102675.97;;;10.27
67599;BMP280;62026;39.230;9.122;2023-02-18T05:29:24;102666.50;;;10.24
67599;BMP280;62026;39.230;9.122;2023-02-18T05:31:50;102675.25;;;10.25
67599;BMP280;62026;39.230;9.122;2023-02-18T05:34:16;102669.66;;;10.20
67599;BMP280;62026;39.230;9.122;2023-02-18T05:36:43;102675.75;;;10.20
67599;BMP280;62026;39.230;9.122;2023-02-18T05:39:08;102676.03;;;10.17
67599;BMP280;62026;39.230;9.122;2023-02-18T05:41:34;102672.41;;;10.18
67599;BMP280;62026;39.230;9.122;2023-02-18T05:44:00;102676.34;;;10.14
67599;BMP280;62026;39.230;9.122;2023-02-18T05:46:45;102672.06;;;10.13
67599;BMP280;62026;39.230;9.122;2023-02-18T05:49:11;102668.44;;;10.14
67599;BMP280;62026;39.230;9.122;2023-02-18T05:51:37;102669.41;;;10.13
67599;BMP280;62026;39.230;9.122;2023-02-18T05:54:03;102666.78;;;10.13
67599;BMP280;62026;39.230;9.122;2023-02-18T05:56:29;102670.75;;;10.17
67599;BMP280;62026;39.230;9.122;2023-02-18T05:58:55;102674.38;;;10.16
67599;BMP280;62026;39.230;9.122;2023-02-18T06:01:21;102669.88;;;10.08
67599;BMP280;62026;39.230;9.122;2023-02-18T06:03:47;102661.28;;;10.06
67599;BMP280;62026;39.230;9.122;2023-02-18T06:06:13;102669.72;;;10.10
67599;BMP280;62026;39.230;9.122;2023-02-18T06:08:39;102667.41;;;10.07
67599;BMP280;62026;39.230;9.122;2023-02-18T06:11:05;102675.31;;;10.07
67599;BMP280;62026;39.230;9.122;2023-02-18T06:13:31;102668.91;;;10.09
67599;BMP280;62026;39.230;9.122;2023-02-18T06:15:57;102675.00;;;10.10
67599;BMP280;62026;39.230;9.122;2023-02-18T06:18:23;102677.78;;;10.08
67599;BMP280;62026;39.230;9.122;2023-02-18T06:20:50;102679.44;;;10.09
67599;BMP280;62026;39.230;9.122;2023-02-18T06:23:16;102677.31;;;10.13
67599;BMP280;62026;39.230;9.122;2023-02-18T06:25:42;102679.66;;;10.16
67599;BMP280;62026;39.230;9.122;2023-02-18T06:28:08;102677.06;;;10.24
67599;BMP280;62026;39.230;9.122;2023-02-18T06:30:34;102673.16;;;10.28
67599;BMP280;62026;39.230;9.122;2023-02-18T06:33:00;102680.25;;;10.28
67599;BMP280;62026;39.230;9.122;2023-02-18T06:35:29;102678.94;;;10.32
67599;BMP280;62026;39.230;9.122;2023-02-18T06:37:55;102679.13;;;10.38
67599;BMP280;62026;39.230;9.122;2023-02-18T06:40:21;102675.13;;;10.52
67599;BMP280;62026;39.230;9.122;2023-02-18T06:42:47;102679.22;;;10.55
67599;BMP280;62026;39.230;9.122;2023-02-18T06:45:13;102676.34;;;10.66
67599;BMP280;62026;39.230;9.122;2023-02-18T06:47:39;102680.81;;;10.73
67599;BMP280;62026;39.230;9.122;2023-02-18T06:50:06;102686.81;;;10.84
67599;BMP280;62026;39.230;9.122;2023-02-18T06:52:32;102684.03;;;10.93
67599;BMP280;62026;39.230;9.122;2023-02-18T06:54:59;102688.69;;;10.99
67599;BMP280;62026;39.230;9.122;2023-02-18T06:57:25;102686.06;;;11.07
67599;BMP280;62026;39.230;9.122;2023-02-18T06:59:51;102685.09;;;11.17
67599;BMP280;62026;39.230;9.122;2023-02-18T07:02:17;102679.00;;;11.24
67599;BMP280;62026;39.230;9.122;2023-02-18T07:04:43;102690.41;;;11.33
67599;BMP280;62026;39.230;9.122;2023-02-18T07:07:11;102683.66;;;11.38
67599;BMP280;62026;39.230;9.122;2023-02-18T07:09:37;102688.94;;;11.47
67599;BMP280;62026;39.230;9.122;2023-02-18T07:12:03;102682.19;;;11.60
67599;BMP280;62026;39.230;9.122;2023-02-18T07:14:29;102690.13;;;11.68
67599;BMP280;62026;39.230;9.122;2023-02-18T07:16:55;102683.50;;;11.81
67599;BMP280;62026;39.230;9.122;2023-02-18T07:19:21;102684.50;;;11.88
67599;BMP280;62026;39.230;9.122;2023-02-18T07:21:47;102691.59;;;11.95
67599;BMP280;62026;39.230;9.122;2023-02-18T07:24:13;102689.78;;;12.04
67599;BMP280;62026;39.230;9.122;2023-02-18T07:26:40;102689.44;;;12.07
67599;BMP280;62026;39.230;9.122;2023-02-18T07:29:05;102691.75;;;12.18
67599;BMP280;62026;39.230;9.122;2023-02-18T07:31:31;102695.34;;;12.33
67599;BMP280;62026;39.230;9.122;2023-02-18T07:33:57;102699.63;;;12.43
67599;BMP280;62026;39.230;9.122;2023-02-18T07:36:23;102700.22;;;12.53
67599;BMP280;62026;39.230;9.122;2023-02-18T07:38:49;102695.75;;;12.53
67599;BMP280;62026;39.230;9.122;2023-02-18T07:41:19;102684.84;;;12.56
67599;BMP280;62026;39.230;9.122;2023-02-18T07:43:46;102698.81;;;12.81
67599;BMP280;62026;39.230;9.122;2023-02-18T07:46:12;102699.59;;;12.90
67599;BMP280;62026;39.230;9.122;2023-02-18T07:48:38;102702.09;;;13.37
67599;BMP280;62026;39.230;9.122;2023-02-18T07:51:10;102699.69;;;13.50
67599;BMP280;62026;39.230;9.122;2023-02-18T07:53:38;102698.72;;;13.66
67599;BMP280;62026;39.230;9.122;2023-02-18T07:56:05;102696.25;;;13.64
67599;BMP280;62026;39.230;9.122;2023-02-18T07:58:34;102695.81;;;13.75
67599;BMP280;62026;39.230;9.122;2023-02-18T08:01:06;102698.06;;;13.87
67599;BMP280;62026;39.230;9.122;2023-02-18T08:03:34;102697.53;;;14.06
67599;BMP280;62026;39.230;9.122;2023-02-18T08:06:02;102698.81;;;14.39
67599;BMP280;62026;39.230;9.122;2023-02-18T08:08:31;102692.59;;;14.47
67599;BMP280;62026;39.230;9.122;2023-02-18T08:11:01;102699.47;;;14.41
67599;BMP280;62026;39.230;9.122;2023-02-18T08:13:32;102698.94;;;14.67
67599;BMP280;62026;39.230;9.122;2023-02-18T08:15:58;102704.09;;;14.90
67599;BMP280;62026;39.230;9.122;2023-02-18T08:18:26;102708.16;;;15.07
67599;BMP280;62026;39.230;9.122;2023-02-18T08:20:52;102704.88;;;15.27
67599;BMP280;62026;39.230;9.122;2023-02-18T08:23:20;102716.03;;;15.37
67599;BMP280;62026;39.230;9.122;2023-02-18T08:25:49;102714.44;;;15.42
67599;BMP280;62026;39.230;9.122;2023-02-18T08:28:18;102712.94;;;15.55
67599;BMP280;62026;39.230;9.122;2023-02-18T08:30:46;102720.09;;;15.54
67599;BMP280;62026;39.230;9.122;2023-02-18T08:33:13;102714.69;;;15.75
67599;BMP280;62026;39.230;9.122;2023-02-18T08:35:40;102714.69;;;15.75
67599;BMP280;62026;39.230;9.122;2023-02-18T08:38:08;102720.69;;;16.12
67599;BMP280;62026;39.230;9.122;2023-02-18T08:40:34;102716.69;;;16.23
67599;BMP280;62026;39.230;9.122;2023-02-18T08:43:00;102711.81;;;16.39
67599;BMP280;62026;39.230;9.122;2023-02-18T08:45:26;102725.59;;;16.49
67599;BMP280;62026;39.230;9.122;2023-02-18T08:47:52;102719.69;;;16.67
67599;BMP280;62026;39.230;9.122;2023-02-18T08:50:18;102713.59;;;16.80
67599;BMP280;62026;39.230;9.122;2023-02-18T08:52:46;102709.50;;;16.97
67599;BMP280;62026;39.230;9.122;2023-02-18T08:55:13;102709.72;;;17.02
67599;BMP280;62026;39.230;9.122;2023-02-18T08:57:39;102710.78;;;17.41
67599;BMP280;62026;39.230;9.122;2023-02-18T09:00:06;102712.81;;;17.65
67599;BMP280;62026;39.230;9.122;2023-02-18T09:02:32;102701.28;;;17.78
67599;BMP280;62026;39.230;9.122;2023-02-18T09:04:58;102708.69;;;17.69
67599;BMP280;62026;39.230;9.122;2023-02-18T09:07:24;102710.34;;;17.70
67599;BMP280;62026;39.230;9.122;2023-02-18T09:09:49;102710.13;;;17.65
67599;BMP280;62026;39.230;9.122;2023-02-18T09:12:15;102707.44;;;17.85
67599;BMP280;62026;39.230;9.122;2023-02-18T09:14:41;102703.75;;;18.31
67599;BMP280;62026;39.230;9.122;2023-02-18T09:17:07;102706.47;;;18.24
67599;BMP280;62026;39.230;9.122;2023-02-18T09:19:33;102710.66;;;18.51
67599;BMP280;62026;39.230;9.122;2023-02-18T09:21:59;102705.78;;;18.42
67599;BMP280;62026;39.230;9.122;2023-02-18T09:24:25;102709.50;;;18.34
67599;BMP280;62026;39.230;9.122;2023-02-18T09:26:51;102710.88;;;18.43
67599;BMP280;62026;39.230;9.122;2023-02-18T09:29:18;102710.19;;;18.23
67599;BMP280;62026;39.230;9.122;2023-02-18T09:31:45;102711.31;;;18.47
67599;BMP280;62026;39.230;9.122;2023-02-18T09:34:11;102715.91;;;18.26
67599;BMP280;62026;39.230;9.122;2023-02-18T09:36:38;102718.13;;;18.36
67599;BMP280;62026;39.230;9.122;2023-02-18T09:39:05;102711.69;;;18.44
67599;BMP280;62026;39.230;9.122;2023-02-18T09:41:54;102712.13;;;18.47
67599;BMP280;62026;39.230;9.122;2023-02-18T09:44:31;102716.22;;;18.43
67599;BMP280;62026;39.230;9.122;2023-02-18T09:47:38;102714.44;;;17.73
67599;BMP280;62026;39.230;9.122;2023-02-18T09:50:21;102721.16;;;18.02
67599;BMP280;62026;39.230;9.122;2023-02-18T09:52:47;102709.25;;;18.42
67599;BMP280;62026;39.230;9.122;2023-02-18T09:55:34;102716.31;;;18.37
67599;BMP280;62026;39.230;9.122;2023-02-18T09:58:20;102711.88;;;18.55
67599;BMP280;62026;39.230;9.122;2023-02-18T10:01:03;102712.97;;;18.41
67599;BMP280;62026;39.230;9.122;2023-02-18T10:03:30;102710.03;;;18.05
67599;BMP280;62026;39.230;9.122;2023-02-18T10:06:17;102712.19;;;17.70
67599;BMP280;62026;39.230;9.122;2023-02-18T10:08:47;102720.41;;;17.68
67599;BMP280;62026;39.230;9.122;2023-02-18T10:13:55;102712.63;;;17.60
67599;BMP280;62026;39.230;9.122;2023-02-18T10:16:24;102712.63;;;17.60
67599;BMP280;62026;39.230;9.122;2023-02-18T10:18:56;102710.34;;;17.57
67599;BMP280;62026;39.230;9.122;2023-02-18T10:21:32;102718.56;;;17.75
67599;BMP280;62026;39.230;9.122;2023-02-18T10:26:55;102714.16;;;18.14
67599;BMP280;62026;39.230;9.122;2023-02-18T10:29:24;102713.94;;;18.09
67599;BMP280;62026;39.230;9.122;2023-02-18T10:32:16;102713.25;;;18.20
67599;BMP280;62026;39.230;9.122;2023-02-18T10:52:05;102697.69;;;18.48
67599;BMP280;62026;39.230;9.122;2023-02-18T10:55:04;102697.94;;;18.40
67599;BMP280;62026;39.230;9.122;2023-02-18T10:57:32;102685.06;;;18.31
67599;BMP280;62026;39.230;9.122;2023-02-18T11:00:24;102688.28;;;18.39
67599;BMP280;62026;39.230;9.122;2023-02-18T11:03:14;102683.75;;;18.46
67599;BMP280;62026;39.230;9.122;2023-02-18T11:05:43;102680.06;;;18.34
67599;BMP280;62026;39.230;9.122;2023-02-18T11:08:18;102675.25;;;18.11
67599;BMP280;62026;39.230;9.122;2023-02-18T11:10:48;102676.19;;;17.85
67599;BMP280;62026;39.230;9.122;2023-02-18T11:13:22;102681.09;;;17.82
67599;BMP280;62026;39.230;9.122;2023-02-18T11:16:06;102674.09;;;17.81
67599;BMP280;62026;39.230;9.122;2023-02-18T11:18:40;102663.41;;;17.87
67599;BMP280;62026;39.230;9.122;2023-02-18T11:21:29;102666.38;;;17.66
67599;BMP280;62026;39.230;9.122;2023-02-18T11:24:06;102653.59;;;17.75
67599;BMP280;62026;39.230;9.122;2023-02-18T11:26:35;102655.84;;;17.78
67599;BMP280;62026;39.230;9.122;2023-02-18T11:29:11;102654.38;;;17.88
67599;BMP280;62026;39.230;9.122;2023-02-18T11:31:45;102651.13;;;17.73
67599;BMP280;62026;39.230;9.122;2023-02-18T11:34:20;102642.31;;;17.66
67599;BMP280;62026;39.230;9.122;2023-02-18T11:36:49;102647.06;;;17.64
67599;BMP280;62026;39.230;9.122;2023-02-18T11:39:27;102643.81;;;17.36
67599;BMP280;62026;39.230;9.122;2023-02-18T11:41:57;102644.03;;;17.34
67599;BMP280;62026;39.230;9.122;2023-02-18T11:44:36;102639.50;;;17.41
67599;BMP280;62026;39.230;9.122;2023-02-18T11:47:22;102638.09;;;17.26
67599;BMP280;62026;39.230;9.122;2023-02-18T11:52:38;102633.56;;;17.19
67599;BMP280;62026;39.230;9.122;2023-02-18T11:55:23;102629.47;;;17.24
67599;BMP280;62026;39.230;9.122;2023-02-18T11:58:01;102628.00;;;16.88
67599;BMP280;62026;39.230;9.122;2023-02-18T12:00:40;102619.41;;;16.99
67599;BMP280;62026;39.230;9.122;2023-02-18T12:05:59;102619.16;;;16.68
67599;BMP280;62026;39.230;9.122;2023-02-18T12:08:31;102625.75;;;16.72
67599;BMP280;62026;39.230;9.122;2023-02-18T12:11:25;102602.34;;;16.74
67599;BMP280;62026;39.230;9.122;2023-02-18T12:13:56;102607.28;;;16.77
67599;BMP280;62026;39.230;9.122;2023-02-18T12:16:45;102599.88;;;16.72
67599;BMP280;62026;39.230;9.122;2023-02-18T12:27:53;102584.03;;;16.44
67599;BMP280;62026;39.230;9.122;2023-02-18T12:30:34;102580.50;;;16.11
67599;BMP280;62026;39.230;9.122;2023-02-18T12:33:27;102578.50;;;16.33
67599;BMP280;62026;39.230;9.122;2023-02-18T12:36:16;102575.22;;;16.37
67599;BMP280;62026;39.230;9.122;2023-02-18T12:55:48;102561.22;;;16.09
67599;BMP280;62026;39.230;9.122;2023-02-18T12:58:51;102553.78;;;15.98
67599;BMP280;62026;39.230;9.122;2023-02-18T13:04:36;102548.28;;;16.06
67599;BMP280;62026;39.230;9.122;2023-02-18T13:07:55;102534.78;;;16.01
67599;BMP280;62026;39.230;9.122;2023-02-18T13:13:24;102534.06;;;15.86
67599;BMP280;62026;39.230;9.122;2023-02-18T13:15:55;102536.56;;;15.94
67599;BMP280;62026;39.230;9.122;2023-02-18T13:18:35;102527.16;;;15.98
67599;BMP280;62026;39.230;9.122;2023-02-18T13:21:11;102524.28;;;15.99
67599;BMP280;62026;39.230;9.122;2023-02-18T13:24:00;102520.78;;;15.99
67599;BMP280;62026;39.230;9.122;2023-02-18T13:26:30;102511.59;;;15.95
67599;BMP280;62026;39.230;9.122;2023-02-18T13:29:18;102521.03;;;16.04
67599;BMP280;62026;39.230;9.122;2023-02-18T13:35:01;102513.22;;;15.96
67599;BMP280;62026;39.230;9.122;2023-02-18T13:38:02;102515.47;;;15.92
67599;BMP280;62026;39.230;9.122;2023-02-18T13:40:36;102509.69;;;15.82
67599;BMP280;62026;39.230;9.122;2023-02-18T13:43:32;102502.47;;;15.63
67599;BMP280;62026;39.230;9.122;2023-02-18T13:51:14;102499.00;;;15.75
67599;BMP280;62026;39.230;9.122;2023-02-18T13:53:48;102496.78;;;15.79
67599;BMP280;62026;39.230;9.122;2023-02-18T13:56:25;102500.78;;;15.55
67599;BMP280;62026;39.230;9.122;2023-02-18T13:59:30;102491.59;;;15.64
67599;BMP280;62026;39.230;9.122;2023-02-18T14:01:50;102497.84;;;15.43
67599;BMP280;62026;39.230;9.122;2023-02-18T14:04:57;102494.88;;;15.66
67599;BMP280;62026;39.230;9.122;2023-02-18T14:07:48;102484.25;;;15.73
67599;BMP280;62026;39.230;9.122;2023-02-18T14:15:52;102473.50;;;15.53
67599;BMP280;62026;39.230;9.122;2023-02-18T14:18:25;102477.25;;;15.65
67599;BMP280;62026;39.230;9.122;2023-02-18T14:21:42;102474.00;;;15.70
67599;BMP280;62026;39.230;9.122;2023-02-18T14:24:12;102481.16;;;15.69
67599;BMP280;62026;39.230;9.122;2023-02-18T14:26:48;102472.38;;;15.69
67599;BMP280;62026;39.230;9.122;2023-02-18T14:29:34;102467.63;;;15.64
67599;BMP280;62026;39.230;9.122;2023-02-18T14:32:10;102465.19;;;15.69
67599;BMP280;62026;39.230;9.122;2023-02-18T14:50:21;102460.63;;;15.50
67599;BMP280;62026;39.230;9.122;2023-02-18T14:52:58;102457.06;;;15.36
67599;BMP280;62026;39.230;9.122;2023-02-18T14:55:37;102465.84;;;15.37
67599;BMP280;62026;39.230;9.122;2023-02-18T14:58:35;102458.63;;;15.18
67599;BMP280;62026;39.230;9.122;2023-02-18T15:01:21;102459.84;;;15.22
67599;BMP280;62026;39.230;9.122;2023-02-18T15:03:53;102449.34;;;15.07
67599;BMP280;62026;39.230;9.122;2023-02-18T15:06:34;102459.22;;;15.20
67599;BMP280;62026;39.230;9.122;2023-02-18T15:09:16;102453.59;;;15.01
67599;BMP280;62026;39.230;9.122;2023-02-18T15:11:46;102450.41;;;15.13
67599;BMP280;62026;39.230;9.122;2023-02-18T15:14:29;102444.50;;;15.17
67599;BMP280;62026;39.230;9.122;2023-02-18T15:16:57;102440.53;;;15.06
67599;BMP280;62026;39.230;9.122;2023-02-18T15:19:28;102443.97;;;14.94
67599;BMP280;62026;39.230;9.122;2023-02-18T15:21:56;102439.97;;;14.83
67599;BMP280;62026;39.230;9.122;2023-02-18T15:27:01;102432.06;;;14.90
67599;BMP280;62026;39.230;9.122;2023-02-18T15:29:33;102439.50;;;15.01
67599;BMP280;62026;39.230;9.122;2023-02-18T15:32:00;102441.47;;;14.92
67599;BMP280;62026;39.230;9.122;2023-02-18T15:34:38;102436.78;;;14.66
67599;BMP280;62026;39.230;9.122;2023-02-18T15:37:11;102431.94;;;14.76
67599;BMP280;62026;39.230;9.122;2023-02-18T15:39:39;102432.84;;;14.90
67599;BMP280;62026;39.230;9.122;2023-02-18T15:42:31;102436.13;;;14.58
67599;BMP280;62026;39.230;9.122;2023-02-18T15:47:46;102438.47;;;14.74
67599;BMP280;62026;39.230;9.122;2023-02-18T15:52:47;102440.63;;;14.92
67599;BMP280;62026;39.230;9.122;2023-02-18T15:55:42;102432.25;;;14.88
67599;BMP280;62026;39.230;9.122;2023-02-18T15:58:16;102432.84;;;14.90
67599;BMP280;62026;39.230;9.122;2023-02-18T16:00:59;102436.13;;;14.92
67599;BMP280;62026;39.230;9.122;2023-02-18T16:03:27;102427.94;;;14.87
67599;BMP280;62026;39.230;9.122;2023-02-18T16:06:30;102434.59;;;14.70
67599;BMP280;62026;39.230;9.122;2023-02-18T16:11:39;102425.34;;;14.66
67599;BMP280;62026;39.230;9.122;2023-02-18T16:14:06;102423.41;;;14.81
67599;BMP280;62026;39.230;9.122;2023-02-18T16:16:36;102425.88;;;14.83
67599;BMP280;62026;39.230;9.122;2023-02-18T16:19:04;102427.38;;;14.64
67599;BMP280;62026;39.230;9.122;2023-02-18T16:24:01;102423.00;;;14.78
67599;BMP280;62026;39.230;9.122;2023-02-18T16:26:41;102430.44;;;14.67
67599;BMP280;62026;39.230;9.122;2023-02-18T16:29:15;102422.69;;;14.66
67599;BMP280;62026;39.230;9.122;2023-02-18T16:31:45;102423.28;;;14.68
67599;BMP280;62026;39.230;9.122;2023-02-18T16:34:11;102428.25;;;14.71
67599;BMP280;62026;39.230;9.122;2023-02-18T16:36:37;102425.28;;;14.59
67599;BMP280;62026;39.230;9.122;2023-02-18T16:39:23;102421.66;;;14.67
67599;BMP280;62026;39.230;9.122;2023-02-18T16:41:49;102421.88;;;14.65